createdAt,value
2019-04-29T00:01:15.832Z,8.75
2019-04-29T00:03:45.261Z,4.22
2019-04-29T00:06:14.685Z,8.15
2019-04-29T00:08:44.172Z,6.47
2019-04-29T00:11:13.573Z,4.70
2019-04-29T00:13:43.358Z,5.20
2019-04-29T00:16:27.299Z,4.42
2019-04-29T00:19:31.088Z,3.77
2019-04-29T00:22:01.353Z,3.92
2019-04-29T00:24:30.838Z,4.97
2019-04-29T00:27:00.215Z,4.60
2019-04-29T00:29:29.621Z,7.10
2019-04-29T00:31:59.326Z,4.70
2019-04-29T00:34:28.758Z,6.33
2019-04-29T00:37:07.929Z,4.67
2019-04-29T00:40:05.250Z,4.00
2019-04-29T00:42:45.654Z,6.17
2019-04-29T00:45:16.007Z,4.85
2019-04-29T00:47:45.425Z,6.20
2019-04-29T00:50:15.747Z,6.03
2019-04-29T00:52:45.146Z,7.28
2019-04-29T00:55:17.316Z,4.08
2019-04-29T00:57:47.131Z,5.22
2019-04-29T01:00:26.795Z,4.05
2019-04-29T01:02:56.203Z,6.37
2019-04-29T01:05:25.610Z,5.17
2019-04-29T01:07:55.023Z,4.15
2019-04-29T01:10:24.629Z,6.60
2019-04-29T01:12:54.033Z,7.45
2019-04-29T01:15:23.457Z,3.55
2019-04-29T01:17:52.848Z,4.33
2019-04-29T01:20:22.261Z,5.20
2019-04-29T01:22:51.684Z,6.50
2019-04-29T01:25:21.101Z,9.98
2019-04-29T01:28:06.067Z,7.92
2019-04-29T01:31:23.795Z,4.40
2019-04-29T01:33:56.850Z,6.95
2019-04-29T01:36:34.271Z,5.62
2019-04-29T01:39:06.715Z,8.73
2019-04-29T01:41:42.705Z,4.78
2019-04-29T01:44:12.127Z,8.05
2019-04-29T01:46:41.570Z,5.60
2019-04-29T01:49:11.336Z,6.33
2019-04-29T01:51:41.144Z,7.37
2019-04-29T01:54:10.529Z,8.35
2019-04-29T01:56:39.973Z,7.25
2019-04-29T01:59:09.432Z,6.75
2019-04-29T02:01:38.841Z,9.95
2019-04-29T02:04:08.346Z,7.60
2019-04-29T02:06:37.752Z,7.15
2019-04-29T02:09:11.092Z,12.82
2019-04-29T02:11:40.821Z,8.35
2019-04-29T02:14:10.321Z,11.75
2019-04-29T02:16:39.724Z,9.35
2019-04-29T02:19:09.541Z,8.53
2019-04-29T02:21:38.972Z,9.18
2019-04-29T02:24:15.709Z,9.30
2019-04-29T02:26:45.172Z,10.48
2019-04-29T02:29:14.586Z,10.28
2019-04-29T02:31:46.076Z,10.90
2019-04-29T02:34:15.488Z,11.15
2019-04-29T02:36:44.950Z,9.05
2019-04-29T02:39:30.805Z,10.50
2019-04-29T02:42:22.219Z,15.48
2019-04-29T02:44:52.551Z,13.55
2019-04-29T02:47:21.951Z,13.78
2019-04-29T02:49:51.398Z,11.40
2019-04-29T02:52:21.139Z,11.78
2019-04-29T02:54:52.151Z,11.15
2019-04-29T02:57:27.910Z,11.20
2019-04-29T03:00:02.575Z,10.35
2019-04-29T03:02:44.129Z,13.40
2019-04-29T03:05:39.613Z,17.00
2019-04-29T03:08:07.319Z,14.70
2019-04-29T03:10:36.860Z,11.50
2019-04-29T03:13:06.288Z,16.57
2019-04-29T03:15:37.221Z,13.28
2019-04-29T03:18:06.620Z,11.88
2019-04-29T03:20:55.019Z,12.93
2019-04-29T03:23:24.778Z,11.35
2019-04-29T03:25:54.331Z,12.68
2019-04-29T03:28:23.778Z,16.90
2019-04-29T03:30:53.249Z,16.48
2019-04-29T03:33:22.657Z,14.35
2019-04-29T03:35:52.102Z,17.20
2019-04-29T03:38:21.517Z,18.73
2019-04-29T03:40:51.026Z,21.90
2019-04-29T03:43:20.485Z,15.30
2019-04-29T03:45:49.915Z,21.60
2019-04-29T03:48:19.456Z,20.25
2019-04-29T03:50:49.055Z,18.92
2019-04-29T03:53:18.499Z,16.10
2019-04-29T03:55:47.937Z,17.00
2019-04-29T03:58:17.343Z,20.17
2019-04-29T04:00:48.342Z,19.90
2019-04-29T04:03:31.146Z,21.48
2019-04-29T04:06:19.526Z,16.48
2019-04-29T04:09:05.630Z,19.25
2019-04-29T04:11:27.140Z,20.80
2019-04-29T04:13:56.595Z,19.00
2019-04-29T04:16:32.302Z,21.90
2019-04-29T04:19:09.542Z,17.52
2019-04-29T04:21:38.976Z,17.87
2019-04-29T04:24:08.458Z,16.52
2019-04-29T04:26:37.961Z,22.05
2019-04-29T04:29:08.399Z,16.87
2019-04-29T04:31:37.912Z,16.05
2019-04-29T04:34:07.332Z,16.42
2019-04-29T04:36:36.839Z,19.52
2019-04-29T04:39:08.185Z,21.70
2019-04-29T04:41:37.725Z,14.70
2019-04-29T04:44:07.197Z,17.07
2019-04-29T04:46:36.662Z,18.65
2019-04-29T04:49:06.114Z,22.45
2019-04-29T04:51:35.552Z,16.30
2019-04-29T04:54:04.991Z,20.75
2019-04-29T04:56:34.987Z,18.25
2019-04-29T04:59:04.487Z,18.25
2019-04-29T05:01:33.902Z,19.65
2019-04-29T05:04:03.394Z,16.10
2019-04-29T05:06:32.857Z,19.85
2019-04-29T05:09:02.315Z,17.57
2019-04-29T05:11:31.740Z,23.47
2019-04-29T05:14:01.585Z,18.55
2019-04-29T05:16:31.048Z,19.67
2019-04-29T05:19:00.492Z,22.60
2019-04-29T05:21:30.364Z,18.70
2019-04-29T05:23:59.834Z,21.33
2019-04-29T05:26:29.326Z,17.52
2019-04-29T05:28:58.801Z,20.40
2019-04-29T05:31:28.283Z,19.23
2019-04-29T05:33:57.751Z,17.25
2019-04-29T05:36:39.769Z,19.52
2019-04-29T05:39:16.837Z,22.27
2019-04-29T05:41:46.300Z,19.25
2019-04-29T05:44:37.492Z,19.17
2019-04-29T05:47:17.870Z,18.80
2019-04-29T05:50:06.508Z,20.10
2019-04-29T05:52:59.345Z,19.90
2019-04-29T05:55:29.097Z,20.45
2019-04-29T05:58:11.798Z,17.55
2019-04-29T06:00:46.062Z,14.35
2019-04-29T06:03:15.615Z,19.92
2019-04-29T06:05:45.098Z,33.78
2019-04-29T06:08:14.938Z,35.48
2019-04-29T06:10:44.386Z,27.60
2019-04-29T06:13:13.871Z,38.80
2019-04-29T06:15:43.764Z,20.43
2019-04-29T06:18:13.234Z,38.10
2019-04-29T06:20:42.706Z,35.17
2019-04-29T06:23:12.176Z,31.82
2019-04-29T06:25:41.681Z,17.45
2019-04-29T06:28:11.109Z,20.17
2019-04-29T06:30:40.858Z,20.08
2019-04-29T06:33:17.915Z,19.00
2019-04-29T06:35:48.951Z,16.42
2019-04-29T06:38:19.622Z,17.32
2019-04-29T06:40:49.156Z,14.30
2019-04-29T06:43:18.619Z,16.67
2019-04-29T06:45:48.089Z,20.43
2019-04-29T06:48:17.527Z,16.90
2019-04-29T06:50:49.759Z,17.57
2019-04-29T06:53:21.206Z,20.37
2019-04-29T06:55:49.530Z,21.60
2019-04-29T06:58:18.996Z,15.20
2019-04-29T07:00:50.874Z,16.77
2019-04-29T07:03:21.008Z,22.65
2019-04-29T07:05:51.632Z,20.77
2019-04-29T07:08:21.735Z,24.23
2019-04-29T07:10:51.657Z,20.60
2019-04-29T07:13:24.258Z,22.70
2019-04-29T07:15:53.770Z,25.72
2019-04-29T07:18:23.292Z,19.07
2019-04-29T07:20:52.779Z,18.67
2019-04-29T07:23:22.257Z,16.20
2019-04-29T07:25:52.243Z,16.48
2019-04-29T07:28:22.727Z,18.00
2019-04-29T07:31:10.010Z,16.65
2019-04-29T07:33:24.534Z,13.90
2019-04-29T07:35:54.105Z,15.28
2019-04-29T07:38:23.578Z,13.18
2019-04-29T07:40:53.172Z,15.43
2019-04-29T07:43:23.103Z,13.45
2019-04-29T07:46:11.862Z,13.55
2019-04-29T07:48:42.160Z,13.38
2019-04-29T07:51:12.457Z,19.95
2019-04-29T07:53:45.434Z,16.75
2019-04-29T07:56:13.027Z,15.90
2019-04-29T07:58:42.768Z,16.95
2019-04-29T08:01:12.251Z,14.98
2019-04-29T08:03:41.781Z,15.23
2019-04-29T08:06:12.145Z,12.63
2019-04-29T08:08:54.199Z,11.75
2019-04-29T08:11:13.317Z,11.33
2019-04-29T08:13:45.779Z,12.30
2019-04-29T08:16:17.255Z,11.63
2019-04-29T08:18:49.628Z,12.07
2019-04-29T08:21:18.218Z,11.83
2019-04-29T08:23:47.706Z,14.38
2019-04-29T08:26:18.042Z,18.77
2019-04-29T08:28:47.524Z,15.93
2019-04-29T08:31:20.979Z,12.00
2019-04-29T08:33:48.611Z,14.93
2019-04-29T08:36:18.060Z,13.05
2019-04-29T08:38:47.548Z,11.35
2019-04-29T08:41:21.564Z,11.00
2019-04-29T08:44:16.375Z,10.55
2019-04-29T08:47:11.714Z,11.75
2019-04-29T08:49:41.186Z,9.55
2019-04-29T08:52:10.701Z,8.35
2019-04-29T08:54:40.189Z,9.38
2019-04-29T08:57:09.707Z,9.70
2019-04-29T08:59:39.598Z,9.78
2019-04-29T09:02:10.321Z,14.00
2019-04-29T09:04:52.852Z,6.58
2019-04-29T09:07:12.720Z,7.35
2019-04-29T09:09:42.581Z,7.28
2019-04-29T09:12:12.078Z,8.20
2019-04-29T09:14:41.629Z,5.67
2019-04-29T09:17:20.336Z,5.62
2019-04-29T09:19:42.335Z,3.90
2019-04-29T09:22:14.162Z,4.47
2019-04-29T09:25:02.570Z,3.33
2019-04-29T09:27:32.182Z,3.25
2019-04-29T09:30:01.706Z,3.20
2019-04-29T09:32:33.987Z,3.60
2019-04-29T09:35:02.423Z,3.67
2019-04-29T09:37:31.890Z,3.75
2019-04-29T09:40:01.818Z,4.05
2019-04-29T09:42:59.679Z,4.30
2019-04-29T09:45:36.905Z,4.30
2019-04-29T09:48:06.651Z,5.55
2019-04-29T09:50:39.076Z,5.15
2019-04-29T09:53:08.196Z,5.50
2019-04-29T09:55:40.025Z,6.05
2019-04-29T09:58:08.831Z,4.12
2019-04-29T10:00:52.630Z,7.62
2019-04-29T10:03:33.325Z,8.78
2019-04-29T10:09:10.883Z,5.42
2019-04-29T10:11:40.502Z,5.70
2019-04-29T10:14:09.965Z,5.20
2019-04-29T10:16:54.698Z,5.50
2019-04-29T10:19:30.442Z,7.30
2019-04-29T10:21:59.922Z,8.53
2019-04-29T10:24:29.427Z,5.20
2019-04-29T10:26:59.006Z,5.22
2019-04-29T10:29:30.291Z,7.58
2019-04-29T10:32:02.497Z,6.40
2019-04-29T10:34:31.585Z,5.92
2019-04-29T10:37:02.747Z,5.37
2019-04-29T10:39:46.847Z,6.00
2019-04-29T10:42:23.077Z,6.28
2019-04-29T10:45:21.297Z,5.80
2019-04-29T10:48:06.449Z,6.40
2019-04-29T10:50:37.975Z,6.42
2019-04-29T10:53:10.916Z,6.72
2019-04-29T10:55:41.006Z,7.58
2019-04-29T10:58:10.518Z,5.78
2019-04-29T11:01:31.217Z,9.35
2019-04-29T11:04:02.494Z,9.48
2019-04-29T11:06:35.861Z,8.83
2019-04-29T11:09:24.065Z,9.88
2019-04-29T11:11:53.647Z,9.40
2019-04-29T11:14:24.767Z,13.75
2019-04-29T11:16:54.725Z,12.78
2019-04-29T11:19:24.221Z,9.03
2019-04-29T11:21:53.707Z,8.75
2019-04-29T11:24:42.643Z,8.93
2019-04-29T11:27:16.225Z,7.90
2019-04-29T11:29:46.441Z,7.62
2019-04-29T11:32:31.934Z,9.43
2019-04-29T11:35:11.765Z,8.75
2019-04-29T11:37:41.231Z,7.78
2019-04-29T11:40:11.479Z,7.53
2019-04-29T11:42:41.822Z,7.10
2019-04-29T11:45:13.584Z,6.50
2019-04-29T11:47:43.013Z,5.83
2019-04-29T11:50:19.394Z,8.13
2019-04-29T11:52:48.810Z,6.03
2019-04-29T11:55:19.884Z,5.50
2019-04-29T11:57:54.618Z,4.45
2019-04-29T12:00:41.660Z,8.85
2019-04-29T12:03:14.536Z,3.37
2019-04-29T12:05:48.474Z,3.77
2019-04-29T12:08:18.488Z,3.47
2019-04-29T12:11:05.685Z,3.40
2019-04-29T12:13:29.183Z,3.37
2019-04-29T12:16:24.629Z,3.62
2019-04-29T12:18:54.430Z,3.52
2019-04-29T12:21:31.888Z,3.45
2019-04-29T12:24:02.661Z,3.30
2019-04-29T12:26:35.007Z,3.27
2019-04-29T12:29:03.381Z,3.40
2019-04-29T12:31:51.146Z,3.40
2019-04-29T12:34:42.966Z,7.00
2019-04-29T12:37:37.378Z,3.10
2019-04-29T12:40:25.198Z,3.42
2019-04-29T12:43:20.135Z,3.47
2019-04-29T12:45:59.797Z,3.40
2019-04-29T12:48:29.226Z,3.50
2019-04-29T12:50:59.680Z,4.60
2019-04-29T12:53:29.164Z,4.08
2019-04-29T12:55:58.530Z,8.38
2019-04-29T12:58:28.250Z,4.25
2019-04-29T13:01:05.851Z,3.98
2019-04-29T13:03:43.950Z,6.20
2019-04-29T13:06:39.678Z,7.45
2019-04-29T13:09:17.921Z,3.70
2019-04-29T13:11:48.894Z,3.92
2019-04-29T13:14:17.750Z,3.65
2019-04-29T13:16:57.093Z,4.22
2019-04-29T13:19:33.634Z,5.05
2019-04-29T13:22:04.254Z,5.33
2019-04-29T13:24:33.742Z,3.90
2019-04-29T13:27:15.663Z,4.33
2019-04-29T13:29:36.150Z,4.20
2019-04-29T13:32:05.465Z,4.70
2019-04-29T13:34:39.680Z,4.50
2019-04-29T13:37:18.413Z,4.47
2019-04-29T13:39:40.874Z,5.70
2019-04-29T13:42:15.915Z,8.58
2019-04-29T13:44:46.045Z,4.60
2019-04-29T13:47:38.956Z,5.12
2019-04-29T13:50:31.337Z,6.72
2019-04-29T13:52:46.369Z,5.00
2019-04-29T13:55:18.003Z,4.97
2019-04-29T13:57:49.667Z,8.50
2019-04-29T14:00:36.717Z,10.48
2019-04-29T14:03:11.598Z,7.10
2019-04-29T14:05:41.799Z,8.10
2019-04-29T14:08:11.799Z,9.00
2019-04-29T14:10:41.553Z,50.78
2019-04-29T14:13:16.269Z,7.53
2019-04-29T14:15:42.163Z,5.42
2019-04-29T14:18:12.137Z,7.92
2019-04-29T14:20:43.091Z,6.62
2019-04-29T14:23:14.141Z,7.33
2019-04-29T14:25:43.662Z,5.12
2019-04-29T14:28:13.153Z,5.35
2019-04-29T14:30:43.769Z,9.00
2019-04-29T14:33:13.690Z,8.00
2019-04-29T14:36:02.081Z,4.90
2019-04-29T14:38:31.576Z,9.93
2019-04-29T14:41:01.002Z,7.83
2019-04-29T14:43:50.702Z,8.48
2019-04-29T14:46:56.245Z,6.87
2019-04-29T14:49:28.888Z,6.78
2019-04-29T14:51:58.392Z,7.62
2019-04-29T14:54:27.837Z,7.67
2019-04-29T14:56:57.245Z,8.80
2019-04-29T14:59:27.417Z,8.80
2019-04-29T15:02:03.662Z,10.13
2019-04-29T15:04:36.437Z,11.30
2019-04-29T15:07:06.285Z,9.83
2019-04-29T15:09:46.393Z,13.43
2019-04-29T15:12:17.257Z,12.95
2019-04-29T15:15:09.752Z,14.10
2019-04-29T15:17:52.263Z,42.38
2019-04-29T15:20:34.531Z,21.70
2019-04-29T15:23:04.206Z,25.48
2019-04-29T15:25:33.677Z,23.22
2019-04-29T15:28:03.140Z,24.10
2019-04-29T15:30:36.750Z,21.60
2019-04-29T15:33:04.036Z,26.80
2019-04-29T15:35:33.473Z,30.95
2019-04-29T15:38:02.960Z,33.40
2019-04-29T15:40:32.402Z,33.05
2019-04-29T15:43:02.143Z,41.73
2019-04-29T15:45:32.714Z,33.48
2019-04-29T15:48:03.103Z,36.50
2019-04-29T15:50:36.602Z,36.23
2019-04-29T15:53:04.438Z,37.25
2019-04-29T15:55:34.809Z,39.55
2019-04-29T15:58:06.147Z,37.05
2019-04-29T16:00:40.023Z,34.43
2019-04-29T16:03:08.184Z,38.48
2019-04-29T16:06:11.023Z,39.33
2019-04-29T16:08:35.030Z,40.65
2019-04-29T16:11:29.449Z,40.75
2019-04-29T16:14:08.807Z,45.78
2019-04-29T16:16:30.678Z,44.70
2019-04-29T16:19:07.815Z,50.70
2019-04-29T16:21:32.307Z,49.70
2019-04-29T16:24:24.518Z,55.15
2019-04-29T16:26:34.336Z,86.78
2019-04-29T16:29:12.338Z,53.13
2019-04-29T16:31:35.478Z,64.65
2019-04-29T16:34:05.082Z,66.57
2019-04-29T16:36:34.538Z,83.00
2019-04-29T16:39:05.838Z,67.53
2019-04-29T16:41:58.246Z,89.47
2019-04-29T16:44:35.637Z,251.80
2019-04-29T16:46:59.571Z,350.45
2019-04-29T16:49:29.019Z,348.32
2019-04-29T16:51:58.868Z,207.25
2019-04-29T16:54:28.717Z,140.82
2019-04-29T16:56:58.229Z,214.93
2019-04-29T16:59:27.729Z,162.03
2019-04-29T17:01:57.240Z,145.35
2019-04-29T17:04:26.930Z,166.55
2019-04-29T17:07:11.963Z,122.82
2019-04-29T17:09:46.554Z,116.17
2019-04-29T17:12:16.236Z,146.70
2019-04-29T17:15:02.989Z,127.95
2019-04-29T17:17:28.597Z,128.78
2019-04-29T17:19:51.078Z,115.00
2019-04-29T17:22:26.086Z,102.40
2019-04-29T17:24:51.783Z,122.80
2019-04-29T17:27:49.594Z,119.37
2019-04-29T17:30:46.512Z,116.95
2019-04-29T17:33:27.784Z,122.50
2019-04-29T17:35:54.462Z,115.40
2019-04-29T17:38:23.953Z,120.40
2019-04-29T17:40:53.526Z,122.17
2019-04-29T17:43:44.948Z,130.22
2019-04-29T17:46:33.328Z,130.90
2019-04-29T17:49:17.139Z,127.85
2019-04-29T17:51:46.626Z,136.03
2019-04-29T17:54:19.620Z,138.40
2019-04-29T17:57:27.837Z,135.52
2019-04-29T18:00:00.522Z,129.87
2019-04-29T18:03:08.760Z,130.10
2019-04-29T18:06:01.650Z,132.90
2019-04-29T18:08:44.917Z,130.50
2019-04-29T18:11:15.081Z,123.53
2019-04-29T18:13:45.895Z,129.47
2019-04-29T18:16:18.923Z,115.50
2019-04-29T18:19:00.548Z,138.92
2019-04-29T18:21:50.274Z,123.90
2019-04-29T18:24:34.119Z,121.05
2019-04-29T18:27:05.583Z,122.50
2019-04-29T18:29:41.461Z,120.57
2019-04-29T18:32:07.912Z,131.97
2019-04-29T18:34:37.913Z,137.72
2019-04-29T18:37:07.361Z,118.77
2019-04-29T18:39:37.353Z,132.50
2019-04-29T18:42:07.311Z,120.13
2019-04-29T18:44:40.512Z,112.28
2019-04-29T18:47:19.740Z,127.82
2019-04-29T18:49:39.386Z,120.82
2019-04-29T18:52:11.343Z,120.05
2019-04-29T18:54:39.987Z,107.78
2019-04-29T18:57:09.963Z,120.20
2019-04-29T18:59:41.936Z,118.17
2019-04-29T19:02:10.582Z,108.52
2019-04-29T19:05:04.969Z,117.50
2019-04-29T19:07:37.195Z,108.67
2019-04-29T19:10:13.999Z,114.92
2019-04-29T19:12:39.401Z,122.55
2019-04-29T19:15:11.858Z,115.52
2019-04-29T19:17:40.516Z,113.35
2019-04-29T19:20:13.102Z,125.02
2019-04-29T19:22:43.994Z,117.00
2019-04-29T19:25:15.430Z,131.37
2019-04-29T19:27:45.474Z,109.52
2019-04-29T19:30:20.951Z,102.42
2019-04-29T19:32:47.294Z,117.35
2019-04-29T19:35:17.099Z,111.85
2019-04-29T19:37:46.867Z,122.30
2019-04-29T19:40:16.789Z,108.00
2019-04-29T19:42:47.118Z,111.32
2019-04-29T19:45:17.542Z,107.58
2019-04-29T19:47:52.043Z,115.00
2019-04-29T19:50:19.781Z,110.90
2019-04-29T19:52:49.554Z,110.37
2019-04-29T19:55:19.159Z,111.32
2019-04-29T19:57:52.288Z,113.42
2019-04-29T20:00:28.430Z,104.10
2019-04-29T20:02:52.465Z,105.05
2019-04-29T20:05:35.459Z,99.03
2019-04-29T20:08:02.922Z,112.17
2019-04-29T20:10:44.402Z,98.07
2019-04-29T20:13:04.884Z,97.02
2019-04-29T20:15:38.044Z,101.53
2019-04-29T20:18:34.453Z,101.12
2019-04-29T20:21:08.481Z,102.27
2019-04-29T20:23:36.157Z,90.28
2019-04-29T20:27:19.983Z,105.80
2019-04-29T20:28:35.829Z,100.95
2019-04-29T20:31:16.394Z,90.38
2019-04-29T20:33:36.302Z,101.95
2019-04-29T20:36:06.300Z,93.35
2019-04-29T20:38:38.864Z,87.78
2019-04-29T20:41:08.226Z,79.22
2019-04-29T20:43:38.220Z,86.28
2019-04-29T20:46:09.295Z,88.82
2019-04-29T20:48:38.814Z,78.52
2019-04-29T20:51:13.123Z,85.70
2019-04-29T20:53:46.108Z,81.02
2019-04-29T20:56:24.138Z,77.05
2019-04-29T20:58:47.135Z,75.65
2019-04-29T21:01:26.303Z,76.10
2019-04-29T21:03:56.649Z,82.05
2019-04-29T21:06:26.403Z,68.25
2019-04-29T21:08:55.868Z,72.97
2019-04-29T21:11:32.372Z,68.57
2019-04-29T21:14:16.473Z,59.67
2019-04-29T21:16:47.697Z,63.73
2019-04-29T21:19:18.253Z,69.90
2019-04-29T21:21:47.747Z,55.67
2019-04-29T21:24:18.647Z,64.77
2019-04-29T21:26:48.321Z,59.18
2019-04-29T21:29:19.350Z,53.70
2019-04-29T21:31:50.859Z,54.50
2019-04-29T21:34:22.166Z,53.35
2019-04-29T21:37:15.296Z,41.50
2019-04-29T21:40:02.040Z,47.27
2019-04-29T21:42:55.325Z,43.52
2019-04-29T21:45:25.716Z,43.95
2019-04-29T21:47:55.809Z,40.10
2019-04-29T21:50:29.067Z,40.00
2019-04-29T21:53:01.687Z,38.60
2019-04-29T21:55:29.370Z,37.95
2019-04-29T21:58:00.140Z,48.83
2019-04-29T22:00:30.408Z,38.63
2019-04-29T22:02:59.874Z,38.40
2019-04-29T22:05:29.337Z,34.03
2019-04-29T22:07:59.181Z,38.83
2019-04-29T22:10:29.185Z,37.28
2019-04-29T22:13:02.143Z,30.50
2019-04-29T22:15:33.331Z,38.53
2019-04-29T22:18:01.636Z,29.25
2019-04-29T22:20:35.680Z,29.18
2019-04-29T22:23:08.356Z,29.50
2019-04-29T22:25:36.638Z,32.80
2019-04-29T22:28:06.234Z,27.98
2019-04-29T22:30:35.971Z,25.55
2019-04-29T22:33:06.185Z,28.42
2019-04-29T22:35:37.252Z,31.80
2019-04-29T22:38:07.855Z,29.70
2019-04-29T22:40:40.883Z,36.35
2019-04-29T22:43:17.577Z,36.88
2019-04-29T22:45:47.045Z,30.85
2019-04-29T22:48:19.528Z,23.25
2019-04-29T22:50:47.587Z,31.10
2019-04-29T22:53:17.429Z,30.43
2019-04-29T22:55:46.874Z,32.45
2019-04-29T22:58:16.355Z,27.87
2019-04-29T23:00:45.815Z,19.10
2019-04-29T23:03:15.315Z,28.70
2019-04-29T23:05:46.153Z,28.92
2019-04-29T23:08:15.799Z,29.25
2019-04-29T23:10:45.583Z,23.20
2019-04-29T23:13:15.760Z,27.35
2019-04-29T23:15:45.542Z,23.10
2019-04-29T23:18:24.298Z,24.85
2019-04-29T23:21:05.103Z,24.50
2019-04-29T23:23:40.243Z,22.37
2019-04-29T23:26:09.702Z,19.98
2019-04-29T23:28:39.161Z,19.52
2019-04-29T23:31:08.684Z,19.37
2019-04-29T23:33:38.120Z,21.80
2019-04-29T23:36:09.604Z,29.82
2019-04-29T23:38:42.650Z,23.18
2019-04-29T23:41:09.830Z,19.40
2019-04-29T23:43:39.301Z,24.47
2019-04-29T23:46:09.197Z,25.50
2019-04-29T23:48:39.777Z,16.15
2019-04-29T23:51:09.391Z,22.55
2019-04-29T23:53:38.820Z,19.50
2019-04-29T23:56:09.848Z,21.25
2019-04-29T23:58:51.605Z,18.02
